Time;durP1;ratioP1;P1;durP2;ratioP2;P2;SDS_P1;SDS_P2;PMS_P1;PMS_P2;Temp;Humidity;BMP_temperature;BMP_pressure;BME280_temperature;BME280_humidity;BME280_pressure;Samples;Min_cycle;Max_cycle;Signal;HPM_P1;HPM_P2
2021/03/30 00:02:03;;;;;;;61.80;5.82;;;;;;;;;;4970889;28;20046;-71
2021/03/30 00:04:30;;;;;;;46.35;5.53;;;;;;;;;;4987069;28;20077;-64
2021/03/30 00:06:57;;;;;;;53.63;6.13;;;;;;;;;;4989931;28;20072;-62
2021/03/30 00:09:24;;;;;;;55.08;5.70;;;;;;;;;;4973275;28;20113;-66
2021/03/30 00:11:51;;;;;;;50.08;6.07;;;;;;;;;;4991105;28;20026;-60
2021/03/30 00:14:18;;;;;;;42.95;5.75;;;;;;;;;;4989939;28;20031;-66
2021/03/30 00:16:45;;;;;;;47.72;6.32;;;;;;;;;;4979172;28;20402;-63
2021/03/30 00:19:12;;;;;;;37.40;5.50;;;;;;;;;;4977251;28;20019;-59
2021/03/30 00:21:39;;;;;;;45.35;6.57;;;;;;;;;;4972967;28;20074;-62
2021/03/30 00:24:06;;;;;;;47.75;6.30;;;;;;;;;;4976498;28;20007;-66
2021/03/30 00:26:35;;;;;;;42.10;5.82;;;;;;;;;;4977393;28;20019;-66
2021/03/30 00:29:07;;;;;;;43.05;6.20;;;;;;;;;;4985724;28;20015;-62
2021/03/30 00:31:34;;;;;;;43.30;6.97;;;;;;;;;;4983785;28;20034;-64
2021/03/30 00:34:01;;;;;;;46.40;6.78;;;;;;;;;;4981773;28;20038;-63
2021/03/30 00:36:28;;;;;;;35.78;5.75;;;;;;;;;;4962779;28;20030;-62
2021/03/30 00:38:55;;;;;;;38.38;5.63;;;;;;;;;;4979363;28;20027;-64
2021/03/30 00:41:22;;;;;;;37.25;5.95;;;;;;;;;;4984815;28;20014;-63
2021/03/30 00:43:49;;;;;;;49.90;6.47;;;;;;;;;;4992505;28;20070;-62
2021/03/30 00:46:17;;;;;;;33.22;5.40;;;;;;;;;;4994660;28;20474;-65
2021/03/30 00:48:50;;;;;;;32.28;5.60;;;;;;;;;;4989705;28;20402;-65
2021/03/30 00:51:17;;;;;;;44.88;5.20;;;;;;;;;;4961612;28;20130;-63
2021/03/30 00:53:45;;;;;;;43.15;5.95;;;;;;;;;;4994039;28;20110;-62
2021/03/30 00:56:12;;;;;;;49.72;6.93;;;;;;;;;;4980668;28;20030;-62
2021/03/30 00:58:39;;;;;;;31.25;5.32;;;;;;;;;;4994084;28;20027;-63
2021/03/30 01:01:06;;;;;;;40.58;5.38;;;;;;;;;;4994029;28;20041;-65
2021/03/30 01:03:33;;;;;;;31.70;5.70;;;;;;;;;;4986306;28;20105;-66
2021/03/30 01:06:01;;;;;;;42.45;5.93;;;;;;;;;;4993902;28;20359;-63
2021/03/30 01:08:30;;;;;;;28.25;6.07;;;;;;;;;;4992632;28;20053;-69
2021/03/30 01:10:57;;;;;;;38.75;6.80;;;;;;;;;;4994790;28;20027;-66
2021/03/30 01:13:27;;;;;;;29.58;6.28;;;;;;;;;;4995729;28;20019;-69
2021/03/30 01:15:54;;;;;;;21.20;6.20;;;;;;;;;;4995127;28;20121;-65
2021/03/30 01:18:21;;;;;;;25.48;5.88;;;;;;;;;;4994145;28;20086;-68
2021/03/30 01:21:06;;;;;;;32.25;6.68;;;;;;;;;;4992957;28;20018;-63
2021/03/30 01:23:51;;;;;;;19.40;6.47;;;;;;;;;;4980268;28;20069;-63
2021/03/30 01:26:24;;;;;;;33.30;7.28;;;;;;;;;;4961005;28;20474;-62
2021/03/30 01:28:51;;;;;;;33.63;6.63;;;;;;;;;;4979256;28;20496;-65
2021/03/30 01:31:18;;;;;;;24.20;6.75;;;;;;;;;;4974054;28;20027;-63
2021/03/30 01:33:46;;;;;;;25.63;7.53;;;;;;;;;;4963660;28;20041;-66
2021/03/30 01:36:13;;;;;;;32.15;8.55;;;;;;;;;;4964845;28;20470;-63
2021/03/30 01:38:42;;;;;;;34.08;8.43;;;;;;;;;;4990174;28;20094;-70
2021/03/30 01:41:10;;;;;;;28.77;8.77;;;;;;;;;;4983353;28;20486;-62
2021/03/30 01:43:37;;;;;;;32.90;9.27;;;;;;;;;;4957060;28;20038;-59
2021/03/30 01:46:05;;;;;;;29.45;8.43;;;;;;;;;;4973148;28;20018;-60
2021/03/30 01:48:32;;;;;;;32.72;7.97;;;;;;;;;;4981254;28;20034;-62
2021/03/30 01:51:00;;;;;;;26.90;9.68;;;;;;;;;;4992168;28;20077;-64
2021/03/30 01:53:28;;;;;;;28.15;9.50;;;;;;;;;;4978114;28;20431;-66
2021/03/30 01:55:55;;;;;;;29.23;10.07;;;;;;;;;;4979624;28;20554;-58
2021/03/30 01:58:22;;;;;;;23.58;9.88;;;;;;;;;;4973370;28;20033;-58
2021/03/30 02:00:50;;;;;;;27.77;9.68;;;;;;;;;;4981048;28;20474;-59
2021/03/30 02:03:18;;;;;;;29.77;9.68;;;;;;;;;;4979409;28;20371;-58
2021/03/30 02:05:46;;;;;;;17.75;7.70;;;;;;;;;;4976472;28;20019;-69
2021/03/30 02:08:13;;;;;;;19.08;9.05;;;;;;;;;;4992457;28;20402;-59
2021/03/30 02:13:10;;;;;;;19.30;7.90;;;;;;;;;;4990296;28;20043;-59
2021/03/30 02:15:37;;;;;;;24.35;8.55;;;;;;;;;;4978710;28;20038;-60
2021/03/30 02:18:08;;;;;;;23.73;9.05;;;;;;;;;;4979872;28;20386;-57
2021/03/30 02:20:42;;;;;;;21.83;7.53;;;;;;;;;;4979002;28;20027;-58
2021/03/30 02:23:24;;;;;;;27.50;9.68;;;;;;;;;;4976183;28;20027;-55
2021/03/30 02:25:53;;;;;;;18.98;7.47;;;;;;;;;;4975865;28;20053;-62
2021/03/30 02:28:23;;;;;;;20.38;7.68;;;;;;;;;;4977400;28;20046;-62
2021/03/30 02:30:50;;;;;;;23.02;7.93;;;;;;;;;;4975238;28;20027;-57
2021/03/30 02:33:21;;;;;;;25.60;9.77;;;;;;;;;;4973639;28;20027;-60
2021/03/30 02:35:50;;;;;;;24.30;9.15;;;;;;;;;;4973605;28;20475;-59
2021/03/30 02:38:17;;;;;;;19.23;7.50;;;;;;;;;;4984440;28;20072;-59
2021/03/30 02:40:46;;;;;;;24.85;7.68;;;;;;;;;;4991779;28;20022;-59
2021/03/30 02:43:14;;;;;;;20.95;7.35;;;;;;;;;;4992076;28;20022;-56
2021/03/30 02:45:42;;;;;;;21.98;7.70;;;;;;;;;;4980625;28;20014;-59
2021/03/30 02:48:10;;;;;;;25.75;9.23;;;;;;;;;;4992471;28;20454;-59
2021/03/30 02:50:38;;;;;;;17.25;7.88;;;;;;;;;;4992207;28;20034;-55
2021/03/30 02:53:05;;;;;;;20.55;7.07;;;;;;;;;;4992467;28;20022;-62
2021/03/30 02:55:36;;;;;;;16.75;7.20;;;;;;;;;;4992073;28;20030;-61
2021/03/30 02:58:06;;;;;;;19.48;7.28;;;;;;;;;;4992174;28;20033;-63
2021/03/30 03:00:33;;;;;;;16.23;7.18;;;;;;;;;;4992865;28;20097;-66
2021/03/30 03:03:00;;;;;;;19.02;6.53;;;;;;;;;;4986256;28;20022;-67
2021/03/30 03:05:27;;;;;;;13.70;6.22;;;;;;;;;;4992100;28;20029;-66
2021/03/30 03:07:54;;;;;;;20.90;6.22;;;;;;;;;;4991369;28;20100;-64
2021/03/30 03:10:22;;;;;;;13.00;5.60;;;;;;;;;;4992373;28;20085;-63
2021/03/30 03:12:50;;;;;;;13.95;5.22;;;;;;;;;;4991440;28;20018;-67
2021/03/30 03:15:17;;;;;;;14.65;5.72;;;;;;;;;;4991515;28;20033;-67
2021/03/30 03:17:44;;;;;;;12.25;5.03;;;;;;;;;;4989646;28;20082;-67
2021/03/30 03:20:12;;;;;;;11.85;5.72;;;;;;;;;;4989833;28;20046;-68
2021/03/30 03:22:39;;;;;;;13.77;4.90;;;;;;;;;;4992314;28;20441;-66
2021/03/30 03:25:10;;;;;;;11.32;5.25;;;;;;;;;;4974071;28;20069;-66
2021/03/30 03:27:37;;;;;;;13.65;5.40;;;;;;;;;;4981308;28;20022;-67
2021/03/30 03:30:07;;;;;;;16.25;6.03;;;;;;;;;;4986847;28;20018;-66
2021/03/30 03:32:35;;;;;;;13.38;5.53;;;;;;;;;;4990944;28;20481;-67
2021/03/30 03:35:02;;;;;;;11.40;5.32;;;;;;;;;;4991891;28;20038;-63
2021/03/30 03:37:30;;;;;;;11.70;5.35;;;;;;;;;;4992722;28;20026;-65
2021/03/30 03:39:58;;;;;;;8.90;5.18;;;;;;;;;;4992609;28;20030;-67
2021/03/30 03:42:25;;;;;;;11.65;5.68;;;;;;;;;;4992595;28;20108;-64
2021/03/30 03:44:52;;;;;;;10.18;4.90;;;;;;;;;;4992392;28;20517;-65
2021/03/30 03:47:23;;;;;;;13.30;5.05;;;;;;;;;;4992761;28;20042;-64
2021/03/30 03:49:50;;;;;;;12.57;5.78;;;;;;;;;;4996394;28;20023;-66
2021/03/30 03:52:17;;;;;;;12.65;6.10;;;;;;;;;;4996376;28;20509;-65
2021/03/30 03:54:45;;;;;;;11.43;4.72;;;;;;;;;;4996391;28;20112;-65
2021/03/30 03:57:28;;;;;;;10.70;4.78;;;;;;;;;;4996211;28;20497;-65
2021/03/30 03:59:58;;;;;;;11.95;5.43;;;;;;;;;;4996153;28;20161;-66
2021/03/30 04:02:33;;;;;;;8.88;4.88;;;;;;;;;;4996018;28;20033;-64
2021/03/30 04:05:04;;;;;;;9.98;4.85;;;;;;;;;;4979037;28;20030;-66
2021/03/30 04:07:36;;;;;;;12.00;5.10;;;;;;;;;;4995954;28;20429;-66
2021/03/30 04:10:07;;;;;;;13.67;4.60;;;;;;;;;;4995800;28;20031;-66
2021/03/30 04:12:34;;;;;;;13.82;5.40;;;;;;;;;;4995918;28;20328;-66
2021/03/30 04:15:01;;;;;;;10.88;4.70;;;;;;;;;;4978561;28;20065;-66
2021/03/30 04:17:28;;;;;;;14.52;5.40;;;;;;;;;;4995993;28;20054;-66
2021/03/30 04:19:55;;;;;;;10.88;4.35;;;;;;;;;;4995926;28;20499;-66
2021/03/30 04:22:22;;;;;;;9.45;4.63;;;;;;;;;;4996034;28;20092;-65
2021/03/30 04:24:49;;;;;;;11.57;4.90;;;;;;;;;;4995577;28;20466;-67
2021/03/30 04:27:16;;;;;;;9.35;4.40;;;;;;;;;;4995665;28;20478;-65
2021/03/30 04:29:43;;;;;;;10.40;4.47;;;;;;;;;;4995752;28;20046;-65
2021/03/30 04:32:11;;;;;;;6.53;3.72;;;;;;;;;;4995702;28;20030;-67
2021/03/30 04:34:38;;;;;;;9.85;4.90;;;;;;;;;;4995622;28;20030;-67
2021/03/30 04:37:05;;;;;;;8.63;4.47;;;;;;;;;;4995471;28;20375;-66
2021/03/30 04:39:32;;;;;;;13.38;4.93;;;;;;;;;;4995488;28;20041;-65
2021/03/30 04:41:59;;;;;;;7.60;3.97;;;;;;;;;;4995434;28;20025;-65
2021/03/30 04:44:26;;;;;;;8.23;3.92;;;;;;;;;;4995420;28;20027;-67
2021/03/30 04:46:53;;;;;;;9.88;4.18;;;;;;;;;;4995445;28;20025;-66
2021/03/30 04:49:20;;;;;;;11.80;4.20;;;;;;;;;;4995344;28;20033;-63
2021/03/30 04:51:48;;;;;;;7.68;3.92;;;;;;;;;;4995265;28;20107;-65
2021/03/30 04:54:15;;;;;;;11.70;4.30;;;;;;;;;;4995270;28;20034;-64
2021/03/30 04:56:42;;;;;;;6.78;3.47;;;;;;;;;;4995272;28;20526;-67
2021/03/30 04:59:09;;;;;;;11.38;4.60;;;;;;;;;;4994587;28;20410;-65
2021/03/30 05:01:36;;;;;;;8.57;3.85;;;;;;;;;;4994909;28;20508;-66
2021/03/30 05:04:03;;;;;;;10.00;3.90;;;;;;;;;;4995023;28;20022;-65
2021/03/30 05:06:30;;;;;;;7.35;3.80;;;;;;;;;;4994961;28;20498;-67
2021/03/30 05:08:57;;;;;;;7.53;3.60;;;;;;;;;;4994774;28;20086;-67
2021/03/30 05:11:24;;;;;;;6.88;3.92;;;;;;;;;;4994936;28;20022;-67
2021/03/30 05:13:52;;;;;;;8.18;3.78;;;;;;;;;;4994834;28;20374;-67
2021/03/30 05:16:19;;;;;;;8.77;4.10;;;;;;;;;;4994804;28;20038;-68
2021/03/30 05:18:46;;;;;;;6.65;3.80;;;;;;;;;;4994768;28;20026;-67
2021/03/30 05:21:13;;;;;;;8.57;3.58;;;;;;;;;;4977240;28;20091;-67
2021/03/30 05:23:40;;;;;;;7.80;3.92;;;;;;;;;;4994582;28;20049;-67
2021/03/30 05:26:07;;;;;;;7.63;3.63;;;;;;;;;;4994473;28;20483;-66
2021/03/30 05:28:34;;;;;;;9.35;4.32;;;;;;;;;;4994535;28;20102;-67
2021/03/30 05:31:01;;;;;;;7.80;3.60;;;;;;;;;;4994705;28;20026;-67
2021/03/30 05:33:28;;;;;;;7.75;4.05;;;;;;;;;;4994524;28;20117;-67
2021/03/30 05:35:55;;;;;;;7.40;3.83;;;;;;;;;;4994244;28;20046;-67
2021/03/30 05:38:22;;;;;;;6.88;4.05;;;;;;;;;;4994406;28;20022;-68
2021/03/30 05:40:50;;;;;;;8.38;3.53;;;;;;;;;;4994272;28;20023;-67
2021/03/30 05:43:18;;;;;;;7.47;3.70;;;;;;;;;;4994387;28;20060;-67
2021/03/30 05:45:45;;;;;;;8.68;3.10;;;;;;;;;;4994414;28;20030;-67
2021/03/30 05:48:15;;;;;;;6.10;2.85;;;;;;;;;;4994072;28;20022;-67
2021/03/30 05:50:43;;;;;;;7.35;3.65;;;;;;;;;;4994010;28;20109;-68
2021/03/30 05:53:14;;;;;;;7.55;3.40;;;;;;;;;;4994215;28;20030;-65
2021/03/30 05:55:44;;;;;;;8.32;3.80;;;;;;;;;;4994037;28;20042;-67
2021/03/30 05:58:11;;;;;;;6.22;3.10;;;;;;;;;;4993793;28;20030;-67
2021/03/30 06:00:46;;;;;;;7.25;3.38;;;;;;;;;;4993822;28;20049;-66
2021/03/30 06:03:22;;;;;;;6.65;3.17;;;;;;;;;;4994071;28;20026;-64
2021/03/30 06:05:57;;;;;;;5.72;3.10;;;;;;;;;;4993884;28;20391;-65
2021/03/30 06:08:24;;;;;;;6.22;3.55;;;;;;;;;;4993513;28;20513;-66
2021/03/30 06:10:56;;;;;;;6.75;3.38;;;;;;;;;;4993584;28;20026;-64
2021/03/30 06:13:40;;;;;;;5.55;3.17;;;;;;;;;;4993780;28;21011;-65
2021/03/30 06:16:24;;;;;;;5.50;2.80;;;;;;;;;;4993381;28;20055;-64
2021/03/30 06:19:10;;;;;;;7.22;3.05;;;;;;;;;;4993709;28;20077;-65
2021/03/30 06:21:44;;;;;;;9.73;3.78;;;;;;;;;;4993674;28;20475;-65
2021/03/30 06:24:24;;;;;;;7.72;3.50;;;;;;;;;;4993616;28;20488;-66
2021/03/30 06:26:56;;;;;;;6.25;3.15;;;;;;;;;;4976107;28;20490;-67
2021/03/30 06:29:36;;;;;;;6.32;3.33;;;;;;;;;;4993539;28;20019;-67
2021/03/30 06:32:05;;;;;;;5.13;2.90;;;;;;;;;;4993267;28;20030;-66
2021/03/30 06:34:33;;;;;;;6.63;2.83;;;;;;;;;;4993289;28;20030;-67
2021/03/30 06:37:00;;;;;;;7.10;3.15;;;;;;;;;;4993296;28;20014;-67
2021/03/30 06:39:53;;;;;;;6.53;3.30;;;;;;;;;;4993197;28;20509;-67
2021/03/30 06:42:21;;;;;;;;;;;;;;;;;;4992001;28;20034;-66
2021/03/30 06:44:51;;;;;;;5.72;3.10;;;;;;;;;;4993256;28;19906;-67
2021/03/30 06:47:23;;;;;;;6.28;3.03;;;;;;;;;;4975670;28;20022;-67
2021/03/30 06:50:01;;;;;;;6.28;2.80;;;;;;;;;;4993235;28;20108;-66
2021/03/30 06:52:30;;;;;;;4.93;3.28;;;;;;;;;;4993280;28;20080;-67
2021/03/30 06:55:00;;;;;;;5.47;2.90;;;;;;;;;;4993286;28;20034;-65
2021/03/30 06:57:34;;;;;;;6.15;2.83;;;;;;;;;;4992986;28;20493;-67
2021/03/30 07:00:01;;;;;;;7.57;3.28;;;;;;;;;;4993064;28;20113;-67
2021/03/30 07:02:29;;;;;;;6.07;3.25;;;;;;;;;;4992816;28;20030;-67
2021/03/30 07:04:56;;;;;;;6.88;3.10;;;;;;;;;;4992800;28;20471;-68
2021/03/30 07:07:24;;;;;;;7.75;2.97;;;;;;;;;;4992604;28;20474;-67
2021/03/30 07:09:52;;;;;;;5.95;2.97;;;;;;;;;;4992776;28;20027;-66
2021/03/30 07:12:23;;;;;;;6.72;2.92;;;;;;;;;;4992859;28;20018;-66
2021/03/30 07:14:51;;;;;;;5.03;2.70;;;;;;;;;;4975180;28;20034;-67
2021/03/30 07:17:28;;;;;;;5.10;2.67;;;;;;;;;;4992747;28;20554;-67
2021/03/30 07:19:56;;;;;;;5.53;3.00;;;;;;;;;;4992705;28;20124;-67
2021/03/30 07:22:27;;;;;;;4.40;2.78;;;;;;;;;;4993778;28;20023;-67
2021/03/30 07:25:07;;;;;;;5.35;2.90;;;;;;;;;;4999171;28;20497;-67
2021/03/30 07:27:43;;;;;;;6.43;2.75;;;;;;;;;;4998988;28;20049;-68
2021/03/30 07:30:12;;;;;;;8.85;2.92;;;;;;;;;;4999284;28;20030;-67
2021/03/30 07:32:44;;;;;;;7.63;2.63;;;;;;;;;;4999095;28;20104;-67
2021/03/30 07:35:11;;;;;;;5.35;2.65;;;;;;;;;;4999140;28;20092;-67
2021/03/30 07:37:39;;;;;;;6.68;3.10;;;;;;;;;;4999166;28;20034;-67
2021/03/30 07:40:23;;;;;;;4.93;2.63;;;;;;;;;;4999032;28;20030;-67
2021/03/30 07:42:51;;;;;;;6.38;2.97;;;;;;;;;;4984015;28;20437;-67
2021/03/30 07:45:21;;;;;;;4.78;2.58;;;;;;;;;;4981623;28;20049;-67
2021/03/30 07:47:49;;;;;;;5.32;2.50;;;;;;;;;;4999031;28;20102;-67
2021/03/30 07:50:17;;;;;;;5.63;2.92;;;;;;;;;;4981645;28;20022;-67
2021/03/30 07:52:54;;;;;;;6.95;2.90;;;;;;;;;;4998852;28;20060;-66
2021/03/30 07:55:27;;;;;;;5.88;2.60;;;;;;;;;;4998892;28;20034;-67
2021/03/30 07:58:05;;;;;;;6.38;2.65;;;;;;;;;;4998901;28;20022;-66
2021/03/30 08:00:32;;;;;;;4.45;2.70;;;;;;;;;;4999090;28;20114;-67
2021/03/30 08:03:26;;;;;;;6.53;2.85;;;;;;;;;;4998775;28;20022;-67
2021/03/30 08:06:10;;;;;;;6.35;2.92;;;;;;;;;;4997011;28;20045;-67
2021/03/30 08:09:00;;;;;;;4.35;2.35;;;;;;;;;;4998705;28;20050;-66
2021/03/30 08:11:39;;;;;;;4.95;2.38;;;;;;;;;;4991444;28;20030;-67
2021/03/30 08:14:12;;;;;;;4.53;2.45;;;;;;;;;;4998750;28;20038;-67
2021/03/30 08:16:42;;;;;;;4.45;2.30;;;;;;;;;;4998805;28;20027;-66
2021/03/30 08:19:10;;;;;;;4.80;2.80;;;;;;;;;;4998718;28;20022;-67
2021/03/30 08:21:56;;;;;;;5.15;2.40;;;;;;;;;;4998945;28;20106;-68
2021/03/30 08:24:24;;;;;;;4.20;2.40;;;;;;;;;;4998772;28;20367;-67
2021/03/30 08:26:51;;;;;;;7.00;2.92;;;;;;;;;;4998619;28;20112;-67
2021/03/30 08:29:36;;;;;;;3.63;1.83;;;;;;;;;;4998664;28;20037;-66
2021/03/30 08:32:04;;;;;;;4.78;2.30;;;;;;;;;;4998744;28;20022;-63
2021/03/30 08:34:41;;;;;;;3.95;2.35;;;;;;;;;;4997333;28;20502;-62
2021/03/30 08:37:13;;;;;;;3.85;2.10;;;;;;;;;;4995880;28;20035;-67
2021/03/30 08:39:40;;;;;;;3.25;2.10;;;;;;;;;;4995663;28;20026;-66
2021/03/30 08:42:15;;;;;;;5.30;2.13;;;;;;;;;;4995556;28;20023;-64
2021/03/30 08:44:42;;;;;;;3.63;1.95;;;;;;;;;;4995302;28;20505;-66
2021/03/30 08:47:10;;;;;;;4.40;2.17;;;;;;;;;;4995384;28;20896;-65
2021/03/30 08:49:38;;;;;;;3.80;2.00;;;;;;;;;;4995164;28;20030;-67
2021/03/30 08:52:12;;;;;;;3.95;1.95;;;;;;;;;;4995177;28;20090;-66
2021/03/30 08:54:53;;;;;;;4.70;2.05;;;;;;;;;;4995270;28;20478;-66
2021/03/30 08:57:33;;;;;;;3.22;1.83;;;;;;;;;;4995299;28;20478;-67
2021/03/30 09:00:13;;;;;;;3.55;2.03;;;;;;;;;;4995209;28;20097;-64
2021/03/30 09:02:40;;;;;;;4.05;2.20;;;;;;;;;;4995238;28;20049;-66
2021/03/30 09:05:16;;;;;;;4.25;2.10;;;;;;;;;;4995247;28;20122;-63
2021/03/30 09:07:44;;;;;;;3.60;2.10;;;;;;;;;;4994660;28;20097;-65
2021/03/30 09:10:12;;;;;;;4.57;1.95;;;;;;;;;;4995016;28;20026;-64
2021/03/30 09:12:39;;;;;;;4.07;1.98;;;;;;;;;;4994813;28;20030;-66
2021/03/30 09:15:06;;;;;;;3.70;2.10;;;;;;;;;;4994646;28;20045;-65
2021/03/30 09:17:33;;;;;;;4.20;1.83;;;;;;;;;;4994817;28;20046;-66
2021/03/30 09:20:01;;;;;;;3.33;1.95;;;;;;;;;;4994775;28;20081;-65
2021/03/30 09:22:38;;;;;;;4.65;1.75;;;;;;;;;;4994723;28;20090;-65
2021/03/30 09:27:46;;;;;;;3.95;1.70;;;;;;;;;;4994579;28;20045;-66
2021/03/30 09:30:20;;;;;;;3.58;1.60;;;;;;;;;;4994710;28;20106;-64
2021/03/30 09:32:47;;;;;;;2.38;1.60;;;;;;;;;;4994543;28;20029;-67
2021/03/30 09:35:16;;;;;;;3.42;1.63;;;;;;;;;;4994539;28;20034;-64
2021/03/30 09:37:48;;;;;;;2.67;1.52;;;;;;;;;;4994313;28;20050;-63
2021/03/30 09:40:19;;;;;;;5.15;1.92;;;;;;;;;;4994650;28;20061;-65
2021/03/30 09:42:46;;;;;;;4.10;2.47;;;;;;;;;;4994181;28;20038;-65
2021/03/30 09:45:15;;;;;;;3.38;1.45;;;;;;;;;;4994006;28;20019;-65
2021/03/30 09:47:43;;;;;;;1.90;1.35;;;;;;;;;;4994128;28;20088;-66
2021/03/30 09:50:10;;;;;;;2.95;1.60;;;;;;;;;;4994047;28;20080;-65
2021/03/30 09:52:37;;;;;;;5.25;1.73;;;;;;;;;;4994030;28;20022;-65
2021/03/30 09:55:08;;;;;;;3.83;1.58;;;;;;;;;;4994214;28;20030;-66
2021/03/30 09:57:35;;;;;;;2.65;1.65;;;;;;;;;;4994038;28;20492;-64
2021/03/30 10:00:02;;;;;;;2.60;1.48;;;;;;;;;;4994057;28;20482;-65
2021/03/30 10:02:36;;;;;;;3.28;1.70;;;;;;;;;;4994062;28;20022;-66
2021/03/30 10:05:07;;;;;;;1.58;1.20;;;;;;;;;;4993814;28;20030;-67
2021/03/30 10:07:40;;;;;;;3.55;1.77;;;;;;;;;;4993463;28;20073;-66
2021/03/30 10:10:08;;;;;;;3.03;1.75;;;;;;;;;;4993740;28;20026;-66
2021/03/30 10:12:50;;;;;;;2.42;1.42;;;;;;;;;;4993842;28;20430;-67
2021/03/30 10:15:17;;;;;;;2.53;1.63;;;;;;;;;;4993840;28;20564;-67
2021/03/30 10:17:45;;;;;;;3.45;1.30;;;;;;;;;;4993481;28;20022;-67
2021/03/30 10:20:15;;;;;;;4.50;1.60;;;;;;;;;;4993732;28;20073;-66
2021/03/30 10:22:46;;;;;;;1.98;1.10;;;;;;;;;;4993717;28;20116;-60
2021/03/30 10:25:18;;;;;;;2.97;1.30;;;;;;;;;;4993771;28;20034;-66
2021/03/30 10:27:57;;;;;;;4.03;1.75;;;;;;;;;;4993441;28;20038;-67
2021/03/30 10:30:34;;;;;;;3.22;1.45;;;;;;;;;;4993364;28;20026;-66
2021/03/30 10:33:04;;;;;;;2.83;1.60;;;;;;;;;;4993424;28;20386;-67
2021/03/30 10:35:31;;;;;;;2.67;1.40;;;;;;;;;;4993853;28;20461;-66
2021/03/30 10:37:59;;;;;;;4.43;1.35;;;;;;;;;;4993542;28;20027;-66
2021/03/30 10:40:36;;;;;;;2.58;1.33;;;;;;;;;;4993197;28;20069;-67
2021/03/30 10:43:22;;;;;;;1.65;1.20;;;;;;;;;;4993246;28;20027;-67
2021/03/30 10:45:49;;;;;;;2.53;1.52;;;;;;;;;;4993034;28;20049;-66
2021/03/30 10:48:16;;;;;;;2.85;1.20;;;;;;;;;;4993241;28;20531;-67
2021/03/30 10:50:44;;;;;;;2.38;1.25;;;;;;;;;;4993208;28;20069;-67
2021/03/30 10:53:12;;;;;;;3.55;1.52;;;;;;;;;;4993078;28;20092;-66
2021/03/30 10:55:39;;;;;;;2.83;1.13;;;;;;;;;;4993150;28;20034;-67
2021/03/30 10:58:09;;;;;;;2.28;1.30;;;;;;;;;;4992177;28;20085;-64
2021/03/30 11:00:36;;;;;;;2.53;1.45;;;;;;;;;;4992821;28;20022;-64
2021/03/30 11:03:03;;;;;;;3.35;1.17;;;;;;;;;;4992891;28;20497;-63
2021/03/30 11:05:30;;;;;;;1.73;1.20;;;;;;;;;;4992334;28;20021;-69
2021/03/30 11:07:57;;;;;;;2.22;1.15;;;;;;;;;;4971076;28;20067;-67
2021/03/30 11:10:25;;;;;;;2.55;1.27;;;;;;;;;;4984321;28;20080;-68
2021/03/30 11:12:52;;;;;;;4.22;1.20;;;;;;;;;;4991119;28;20471;-68
2021/03/30 11:15:19;;;;;;;4.30;1.33;;;;;;;;;;4991386;28;20080;-69
2021/03/30 11:17:47;;;;;;;4.53;1.15;;;;;;;;;;4991068;28;20030;-68
2021/03/30 11:20:14;;;;;;;7.35;2.22;;;;;;;;;;4989038;28;20109;-69
2021/03/30 11:22:44;;;;;;;5.90;1.15;;;;;;;;;;4986974;28;20062;-68
2021/03/30 11:25:12;;;;;;;7.68;1.05;;;;;;;;;;4982471;28;20018;-67
2021/03/30 11:27:41;;;;;;;7.50;1.08;;;;;;;;;;4987587;28;20038;-68
2021/03/30 11:30:14;;;;;;;4.03;1.15;;;;;;;;;;4987876;28;20070;-67
2021/03/30 11:32:45;;;;;;;4.10;1.42;;;;;;;;;;4989136;28;20019;-63
2021/03/30 11:35:19;;;;;;;5.32;1.10;;;;;;;;;;4990564;28;20043;-65
2021/03/30 11:38:05;;;;;;;8.82;1.38;;;;;;;;;;4990866;28;20025;-68
2021/03/30 11:40:32;;;;;;;5.80;1.15;;;;;;;;;;4984091;28;20030;-65
2021/03/30 11:42:59;;;;;;;3.65;0.80;;;;;;;;;;4986230;28;20049;-64
2021/03/30 11:45:26;;;;;;;6.78;1.25;;;;;;;;;;4979522;28;20026;-65
2021/03/30 11:47:53;;;;;;;6.40;1.10;;;;;;;;;;4985954;28;20022;-66
2021/03/30 11:50:20;;;;;;;5.97;1.23;;;;;;;;;;4985769;28;20026;-66
2021/03/30 11:52:47;;;;;;;6.57;0.85;;;;;;;;;;4983004;28;20378;-64
2021/03/30 11:55:15;;;;;;;5.05;0.95;;;;;;;;;;4984380;28;20686;-71
2021/03/30 11:57:43;;;;;;;4.97;1.02;;;;;;;;;;4984368;28;20025;-69
2021/03/30 12:00:11;;;;;;;6.82;1.13;;;;;;;;;;4982077;28;20031;-67
2021/03/30 12:02:38;;;;;;;9.73;0.90;;;;;;;;;;4966933;28;20021;-66
2021/03/30 12:05:05;;;;;;;5.47;0.98;;;;;;;;;;4981278;28;20031;-70
2021/03/30 12:07:32;;;;;;;11.40;1.63;;;;;;;;;;4984849;28;20057;-70
2021/03/30 12:10:00;;;;;;;3.53;0.90;;;;;;;;;;4971348;28;20413;-70
2021/03/30 12:12:27;;;;;;;10.38;1.52;;;;;;;;;;4981799;28;20019;-70
2021/03/30 12:14:54;;;;;;;6.13;1.38;;;;;;;;;;4984837;28;20038;-69
2021/03/30 12:17:21;;;;;;;4.15;0.85;;;;;;;;;;4983289;28;20106;-72
2021/03/30 12:19:48;;;;;;;9.52;1.20;;;;;;;;;;4983674;28;20283;-67
2021/03/30 12:22:15;;;;;;;7.88;1.52;;;;;;;;;;4976003;28;20446;-66
2021/03/30 12:24:42;;;;;;;6.25;1.48;;;;;;;;;;4991585;28;20386;-67
2021/03/30 12:27:11;;;;;;;2.47;0.93;;;;;;;;;;4989477;28;20042;-67
2021/03/30 12:29:41;;;;;;;3.20;1.10;;;;;;;;;;4985082;28;20026;-67
2021/03/30 12:32:12;;;;;;;8.98;1.30;;;;;;;;;;4978957;28;20042;-70
2021/03/30 12:34:39;;;;;;;9.80;1.92;;;;;;;;;;4982756;28;20121;-68
2021/03/30 12:37:09;;;;;;;8.63;1.45;;;;;;;;;;4990438;28;20096;-70
2021/03/30 12:39:36;;;;;;;9.55;1.40;;;;;;;;;;4974975;28;20146;-65
2021/03/30 12:42:03;;;;;;;3.28;1.33;;;;;;;;;;4983933;28;20031;-68
2021/03/30 12:44:30;;;;;;;8.70;1.30;;;;;;;;;;4986219;28;20030;-67
2021/03/30 12:46:57;;;;;;;4.00;1.35;;;;;;;;;;4986187;28;20386;-66
2021/03/30 12:49:24;;;;;;;9.55;1.30;;;;;;;;;;4989577;28;20019;-65
2021/03/30 12:51:52;;;;;;;7.90;1.30;;;;;;;;;;4977998;28;20023;-68
2021/03/30 12:54:20;;;;;;;11.63;1.48;;;;;;;;;;4970316;28;20422;-68
2021/03/30 12:56:47;;;;;;;6.90;1.30;;;;;;;;;;4985093;28;20033;-69
2021/03/30 12:59:15;;;;;;;6.40;1.40;;;;;;;;;;4990707;28;20022;-67
2021/03/30 13:01:42;;;;;;;8.32;1.40;;;;;;;;;;4986418;28;20037;-68
2021/03/30 13:04:09;;;;;;;9.13;1.55;;;;;;;;;;4990850;28;20534;-68
2021/03/30 13:06:37;;;;;;;9.60;1.73;;;;;;;;;;4981450;28;20030;-61
2021/03/30 13:09:04;;;;;;;6.40;1.58;;;;;;;;;;4991757;28;20508;-62
2021/03/30 13:11:31;;;;;;;7.28;1.52;;;;;;;;;;4986384;28;20026;-67
2021/03/30 13:13:58;;;;;;;7.65;1.35;;;;;;;;;;4967572;28;20360;-64
2021/03/30 13:16:25;;;;;;;5.88;1.23;;;;;;;;;;4984098;28;20364;-65
2021/03/30 13:18:53;;;;;;;9.20;1.40;;;;;;;;;;4960220;28;20022;-69
2021/03/30 13:21:20;;;;;;;9.15;1.70;;;;;;;;;;4945534;28;20114;-67
2021/03/30 13:23:47;;;;;;;4.00;1.50;;;;;;;;;;4955032;28;20030;-65
2021/03/30 13:26:15;;;;;;;20.02;2.35;;;;;;;;;;4953347;28;20054;-70
2021/03/30 13:28:43;;;;;;;10.80;1.83;;;;;;;;;;4957448;28;20041;-62
2021/03/30 13:31:10;;;;;;;8.40;1.33;;;;;;;;;;4979628;28;20482;-65
2021/03/30 13:33:37;;;;;;;10.73;1.30;;;;;;;;;;4977685;28;20636;-68
2021/03/30 13:36:04;;;;;;;8.20;1.50;;;;;;;;;;4982248;28;20043;-64
2021/03/30 13:38:31;;;;;;;7.95;1.15;;;;;;;;;;4984937;28;20082;-65
2021/03/30 13:40:59;;;;;;;8.15;1.20;;;;;;;;;;4984557;28;20031;-64
2021/03/30 13:43:26;;;;;;;9.15;1.48;;;;;;;;;;4972589;28;20419;-68
2021/03/30 13:45:53;;;;;;;7.55;0.93;;;;;;;;;;4982160;28;20022;-69
2021/03/30 13:48:20;;;;;;;7.82;1.40;;;;;;;;;;4990234;28;20026;-69
2021/03/30 13:50:47;;;;;;;8.25;1.10;;;;;;;;;;4989227;28;20510;-67
2021/03/30 13:53:14;;;;;;;7.93;0.90;;;;;;;;;;4975709;28;20034;-70
2021/03/30 13:55:41;;;;;;;15.10;1.00;;;;;;;;;;4988120;28;20034;-71
2021/03/30 13:58:09;;;;;;;8.35;0.93;;;;;;;;;;4986428;28;20030;-70
2021/03/30 14:00:36;;;;;;;11.82;1.52;;;;;;;;;;4985992;28;20030;-67
2021/03/30 14:03:03;;;;;;;15.85;1.60;;;;;;;;;;4989848;28;20572;-68
2021/03/30 14:05:30;;;;;;;10.35;1.40;;;;;;;;;;4962067;28;20455;-65
2021/03/30 14:07:57;;;;;;;9.95;1.33;;;;;;;;;;4988944;28;20047;-63
2021/03/30 14:10:24;;;;;;;15.65;1.60;;;;;;;;;;4989508;28;20042;-72
2021/03/30 14:13:12;;;;;;;8.35;1.77;;;;;;;;;;4980354;28;20430;-67
2021/03/30 14:20:47;;;;;;;6.68;1.20;;;;;;;;;;4988712;28;20026;-65
2021/03/30 14:23:28;;;;;;;5.72;1.25;;;;;;;;;;4987820;28;20474;-69
2021/03/30 14:25:56;;;;;;;14.43;1.35;;;;;;;;;;4989964;28;20070;-69
2021/03/30 14:28:23;;;;;;;13.80;1.75;;;;;;;;;;4967470;28;20031;-66
2021/03/30 14:30:50;;;;;;;8.82;1.70;;;;;;;;;;4988384;28;20031;-69
2021/03/30 14:33:17;;;;;;;9.90;1.40;;;;;;;;;;4972798;28;20030;-69
2021/03/30 14:35:44;;;;;;;9.30;1.50;;;;;;;;;;4987945;28;20058;-68
2021/03/30 14:38:11;;;;;;;7.90;1.40;;;;;;;;;;4987901;28;20019;-67
2021/03/30 14:40:49;;;;;;;10.48;1.77;;;;;;;;;;4987990;28;20096;-69
2021/03/30 14:43:20;;;;;;;13.45;1.80;;;;;;;;;;4989523;28;20090;-69
2021/03/30 14:53:51;;;;;;;11.07;2.13;;;;;;;;;;4981716;28;20026;-64
2021/03/30 14:56:21;;;;;;;10.95;1.75;;;;;;;;;;4974706;28;20031;-65
2021/03/30 15:04:11;;;;;;;14.30;2.00;;;;;;;;;;4987481;28;20499;-64
2021/03/30 15:06:38;;;;;;;16.17;1.80;;;;;;;;;;4980561;28;20061;-67
2021/03/30 15:09:05;;;;;;;12.93;1.60;;;;;;;;;;4987749;28;20054;-67
2021/03/30 15:11:32;;;;;;;8.27;1.40;;;;;;;;;;4989223;28;20026;-69
2021/03/30 15:13:59;;;;;;;11.95;1.67;;;;;;;;;;4982784;28;20483;-71
2021/03/30 15:16:27;;;;;;;9.52;1.73;;;;;;;;;;4986163;28;20088;-67